Home > Products > Valid Products > TAF

000
FTUS43 KLMK 230500
TAFSDF
TAF
KSDF 230520Z 2306/2412 00000KT P6SM BKN150
     FM231400 15006KT P6SM BKN130=



000
FTUS43 KLMK 230500
TAFLEX
TAF
KLEX 230520Z 2306/2406 VRB03KT P6SM BKN160
     FM231400 15006KT P6SM BKN140=



000
FTUS43 KLMK 230500
TAFBWG
TAF
KBWG 230520Z 2306/2406 00000KT P6SM BKN150
     FM231400 15006KT P6SM BKN130=



000
FTUS43 KLMK 222300
TAFLEX
TAF
KLEX 222320Z 2300/2324 VRB04KT P6SM SCT250
     FM231600 14006KT P6SM SCT120 BKN250=



000
FTUS43 KLMK 222300
TAFBWG
TAF
KBWG 222320Z 2300/2324 VRB03KT P6SM SCT250
     FM231600 14006KT P6SM SCT120 BKN250=



000
FTUS43 KLMK 222300
TAFLEX
TAF
KLEX 222320Z 2300/2324 VRB04KT P6SM SCT250
     FM231600 14006KT P6SM SCT120 BKN250=



000
FTUS43 KLMK 222300
TAFSDF
TAF
KSDF 222320Z 2300/2406 28007KT P6SM BKN250
     FM230200 VRB03KT P6SM SCT250
     FM231600 14007KT P6SM SCT120 BKN250=



000
FTUS43 KLMK 222300
TAFSDF
TAF
KSDF 222320Z 2300/2406 28007KT P6SM BKN250
     FM230200 VRB03KT P6SM SCT250
     FM231600 14007KT P6SM SCT120 BKN250=



000
FTUS43 KLMK 222300
TAFBWG
TAF
KBWG 222320Z 2300/2324 VRB03KT P6SM SCT250
     FM231600 14006KT P6SM SCT120 BKN250=



000
FTUS43 KLMK 222100 AAA
TAFSDF
TAF AMD
KSDF 222129Z 2221/2324 29009KT P6SM FEW070 SCT250
     FM230000 VRB03KT P6SM SCT250=



000
FTUS43 KLMK 221700
TAFBWG
TAF
KBWG 221720Z 2218/2318 VRB04KT P6SM SKC
     FM230000 VRB03KT P6SM SCT250=



000
FTUS43 KLMK 221700
TAFLEX
TAF
KLEX 221720Z 2218/2318 25008KT P6SM SKC
     FM230000 VRB03KT P6SM SCT250=



000
FTUS43 KLMK 221700
TAFLEX
TAF
KLEX 221720Z 2218/2318 25008KT P6SM SKC
     FM230000 VRB03KT P6SM SCT250=



000
FTUS43 KLMK 221700
TAFSDF
TAF
KSDF 221720Z 2218/2324 20008KT P6SM FEW050 FEW250
     FM230000 VRB03KT P6SM SCT250=



000
FTUS43 KLMK 221700
TAFBWG
TAF
KBWG 221720Z 2218/2318 VRB04KT P6SM SKC
     FM230000 VRB03KT P6SM SCT250=



000
FTUS43 KLMK 221700
TAFSDF
TAF
KSDF 221720Z 2218/2324 20008KT P6SM FEW050 FEW250
     FM230000 VRB03KT P6SM SCT250=



000
FTUS43 KLMK 221100
TAFBWG
TAF
KBWG 221123Z 2212/2312 00000KT 3SM BR SKC
      TEMPO 2212/2213 1SM BR
     FM221300 VRB04KT P6SM SCT250=



000
FTUS43 KLMK 221100
TAFSDF
TAF
KSDF 221123Z 2212/2318 22004KT P6SM SKC
     FM221400 27009KT P6SM FEW250
     FM230000 VRB03KT P6SM BKN250=



000
FTUS43 KLMK 221100
TAFLEX
TAF
KLEX 221123Z 2212/2312 22004KT P6SM SKC
      TEMPO 2212/2213 5SM BR
     FM221400 26008KT P6SM FEW250
     FM230000 VRB03KT P6SM BKN250=



000
FTUS43 KLMK 221100
TAFSDF
TAF
KSDF 221123Z 2212/2318 22004KT P6SM SKC
     FM221400 27009KT P6SM FEW250
     FM230000 VRB03KT P6SM BKN250=



000
FTUS43 KLMK 221100
TAFBWG
TAF
KBWG 221123Z 2212/2312 00000KT 3SM BR SKC
      TEMPO 2212/2213 1SM BR
     FM221300 VRB04KT P6SM SCT250=



000
FTUS43 KLMK 221100
TAFLEX
TAF
KLEX 221123Z 2212/2312 22004KT P6SM SKC
      TEMPO 2212/2213 5SM BR
     FM221400 26008KT P6SM FEW250
     FM230000 VRB03KT P6SM BKN250=



000
FTUS43 KLMK 221000 AAB
TAFBWG
TAF AMD
KBWG 221007Z 2210/2306 00000KT 3SM BR SKC
      TEMPO 2210/2212 1/2SM FG
     FM221300 VRB04KT P6SM SCT250=



000
FTUS43 KLMK 220900 AAA
TAFBWG
TAF AMD
KBWG 220938Z 2210/2306 00000KT P6SM SKC
      TEMPO 2210/2213 1SM BR
     FM221500 VRB04KT P6SM SCT250=



000
FTUS43 KLMK 220500
TAFSDF
TAF
KSDF 220520Z 2206/2312 24004KT P6SM SKC
     FM221400 27009KT P6SM FEW250
     FM230000 VRB03KT P6SM BKN250=



000
FTUS43 KLMK 220500
TAFSDF
TAF
KSDF 220520Z 2206/2312 24004KT P6SM SKC
     FM221400 27009KT P6SM FEW250
     FM230000 VRB03KT P6SM BKN250=



000
FTUS43 KLMK 220500
TAFBWG
TAF
KBWG 220520Z 2206/2306 00000KT P6SM SKC
      TEMPO 2208/2212 3SM BR
     FM221500 VRB04KT P6SM SCT250=



000
FTUS43 KLMK 220500
TAFLEX
TAF
KLEX 220520Z 2206/2306 22004KT P6SM SKC
     FM221400 26008KT P6SM FEW250
     FM230000 VRB03KT P6SM SCT250=



000
FTUS43 KLMK 220500
TAFBWG
TAF
KBWG 220520Z 2206/2306 00000KT P6SM SKC
      TEMPO 2208/2212 3SM BR
     FM221500 VRB04KT P6SM SCT250=



000
FTUS43 KLMK 220500
TAFLEX
TAF
KLEX 220520Z 2206/2306 22004KT P6SM SKC
     FM221400 26008KT P6SM FEW250
     FM230000 VRB03KT P6SM SCT250=



000
FTUS43 KLMK 212300
TAFBWG
TAF
KBWG 212320Z 2200/2224 32007KT P6SM FEW030 BKN050
     FM220200 VRB03KT P6SM SKC
     FM220900 00000KT 4SM BR SKC
     FM221400 32006KT P6SM SCT250=



000
FTUS43 KLMK 212300
TAFSDF
TAF
KSDF 212320Z 2200/2306 31009KT P6SM FEW035 SCT070
     FM220300 VRB04KT P6SM SKC
     FM221400 25009KT P6SM SCT250
     FM222000 28009KT P6SM SCT250
     FM230100 VRB05KT P6SM BKN250=



000
FTUS43 KLMK 212300
TAFLEX
TAF
KLEX 212320Z 2200/2224 32006KT P6SM FEW025 SCT035 BKN050
     FM220300 VRB03KT P6SM SKC
     FM221400 27008KT P6SM SCT250=



000
FTUS43 KLMK 212300
TAFSDF
TAF
KSDF 212320Z 2200/2306 31009KT P6SM FEW035 SCT070
     FM220300 VRB04KT P6SM SKC
     FM221400 25009KT P6SM SCT250
     FM222000 28009KT P6SM SCT250
     FM230100 VRB05KT P6SM BKN250=



000
FTUS43 KLMK 212300
TAFBWG
TAF
KBWG 212320Z 2200/2224 32007KT P6SM FEW030 BKN050
     FM220200 VRB03KT P6SM SKC
     FM220900 00000KT 4SM BR SKC
     FM221400 32006KT P6SM SCT250=



000
FTUS43 KLMK 212300
TAFLEX
TAF
KLEX 212320Z 2200/2224 32006KT P6SM FEW025 SCT035 BKN050
     FM220300 VRB03KT P6SM SKC
     FM221400 27008KT P6SM SCT250=



000
FTUS43 KLMK 211700
TAFLEX
TAF
KLEX 211733Z 2118/2218 32008KT P6SM SCT015 BKN025
     FM220000 VRB03KT P6SM SCT035
     FM221000 VRB03KT 5SM BR SKC
     FM221400 27008KT P6SM SCT250=



000
FTUS43 KLMK 211700
TAFBWG
TAF
KBWG 211733Z 2118/2218 31008KT P6SM BKN016
     FM212100 32008KT P6SM BKN025
     FM220000 VRB03KT P6SM SCT030
     FM220900 00000KT 5SM BR SKC
     FM221400 32006KT P6SM SCT250=



000
FTUS43 KLMK 211700
TAFSDF
TAF
KSDF 211733Z 2118/2224 33011KT P6SM BKN022 OVC035
     FM212100 33010KT P6SM SCT025 BKN035
     FM220100 VRB04KT P6SM SCT035
     FM221400 27007KT P6SM SCT250=



000
FTUS43 KLMK 211100
TAFSDF
TAF
KSDF 211130Z 2112/2218 33009KT P6SM SCT012 BKN030
      TEMPO 2112/2114 BKN012
     FM211700 33011KT P6SM BKN035
     FM220000 VRB04KT P6SM SCT035=



000
FTUS43 KLMK 211100
TAFLEX
TAF
KLEX 211130Z 2112/2212 33008KT 5SM BR BKN007 OVC012
     FM211400 33008KT P6SM BKN012 OVC025
     FM211600 32008KT P6SM BKN025
     FM212100 31010KT P6SM BKN035
     FM220000 VRB03KT P6SM SCT035=



000
FTUS43 KLMK 211100
TAFBWG
TAF
KBWG 211130Z 2112/2212 34006KT 5SM BR BKN006
     FM211500 32008KT P6SM OVC015
     FM211700 33008KT P6SM BKN025
     FM211900 32008KT P6SM SCT035
     FM220000 VRB03KT P6SM FEW035
     FM220900 00000KT 5SM BR FEW250=



000
FTUS43 KLMK 211100
TAFLEX
TAF
KLEX 211130Z 2112/2212 33008KT 5SM BR BKN007 OVC012
     FM211400 33008KT P6SM BKN012 OVC025
     FM211600 32008KT P6SM BKN025
     FM212100 31010KT P6SM BKN035
     FM220000 VRB03KT P6SM SCT035=



000
FTUS43 KLMK 211000 AAB
TAFLEX
TAF AMD
KLEX 211010Z 2110/2206 33006KT P6SM SCT012 BKN025
      TEMPO 2110/2114 BKN012
     FM211800 31010KT P6SM BKN035
     FM220000 VRB03KT P6SM SCT035=



000
FTUS43 KLMK 210800 AAA
TAFLEX
TAF AMD
KLEX 210818Z 2108/2206 33006KT P6SM BKN025
     FM211800 31010KT P6SM BKN035
     FM220000 VRB03KT P6SM SCT035=



000
FTUS43 KLMK 210500
TAFBWG
TAF
KBWG 210537Z 2106/2206 34006KT 5SM BR BKN008
     FM211500 32008KT P6SM OVC015
     FM211700 33008KT P6SM BKN025
     FM212200 33004KT P6SM SCT035=



000
FTUS43 KLMK 210500
TAFSDF
TAF
KSDF 210537Z 2106/2212 35009KT P6SM BKN035
     FM210800 33008KT P6SM BKN025
      TEMPO 2110/2114 BKN015
     FM211600 33011KT P6SM BKN035
     FM220000 VRB04KT P6SM SCT035=



000
FTUS43 KLMK 210500
TAFLEX
TAF
KLEX 210537Z 2106/2206 35008KT P6SM BKN040
     FM211100 33006KT P6SM BKN025
     FM211800 31010KT P6SM BKN035
     FM220000 VRB03KT P6SM SCT035=



000
FTUS43 KLMK 210100 AAA
TAFLEX
TAF AMD
KLEX 210118Z 2101/2124 03009KT P6SM VCSH FEW040 BKN090
     FM210600 02006KT 6SM -SHRA BR BKN025
     FM210800 36006KT 6SM BR BKN015
     FM211300 34006KT P6SM BKN015
     FM212000 32007KT P6SM BKN022=



000
FTUS43 KLMK 210100 AAA
TAFLEX
TAF AMD
KLEX 210118Z 2101/2124 03009KT P6SM VCSH FEW040 BKN090
     FM210600 02006KT 6SM -SHRA BR BKN025
     FM210800 36006KT 6SM BR BKN015
     FM211300 34006KT P6SM BKN015
     FM212000 32007KT P6SM BKN022=



000
FTUS43 KLMK 210100 AAA
TAFSDF
TAF AMD
KSDF 210117Z 2101/2206 01008KT P6SM -SHRA SCT040 BKN060
     FM210500 36007KT P6SM SCT025 BKN040
      TEMPO 2105/2108 BKN025
     FM210800 35007KT P6SM BKN015
     FM211700 33008KT P6SM BKN021
     FM212100 33008KT P6SM BKN035=



000
FTUS43 KLMK 210100 AAA
TAFBWG
TAF AMD
KBWG 210117Z 2101/2124 35005KT P6SM -SHRA BKN050
      TEMPO 2102/2105 4SM -SHRA BR BKN008
     FM210500 34005KT 4SM BR BKN008
     FM211500 32007KT P6SM OVC015
     FM211900 33008KT P6SM BKN025=



000
FTUS43 KLMK 210100 AAA
TAFSDF
TAF AMD
KSDF 210117Z 2101/2206 01008KT P6SM -SHRA SCT040 BKN060
     FM210500 36007KT P6SM SCT025 BKN040
      TEMPO 2105/2108 BKN025
     FM210800 35007KT P6SM BKN015
     FM211700 33008KT P6SM BKN021
     FM212100 33008KT P6SM BKN035=



000
FTUS43 KLMK 210100 AAA
TAFBWG
TAF AMD
KBWG 210117Z 2101/2124 35005KT P6SM -SHRA BKN050
      TEMPO 2102/2105 4SM -SHRA BR BKN008
     FM210500 34005KT 4SM BR BKN008
     FM211500 32007KT P6SM OVC015
     FM211900 33008KT P6SM BKN025=



000
FTUS43 KLMK 202300
TAFBWG
TAF
KBWG 202320Z 2100/2124 VRB04KT 6SM -SHRA BR SCT040 BKN050
     FM210100 35005KT 6SM -SHRA BR BKN021
      TEMPO 2102/2105 4SM -SHRA BR BKN008
     FM210500 34005KT 4SM BR BKN008
     FM211500 32007KT P6SM OVC015
     FM211900 33008KT P6SM BKN025=



000
FTUS43 KLMK 202300
TAFSDF
TAF
KSDF 202320Z 2100/2206 02008KT P6SM -SHRA SCT040 BKN080
     FM210500 36007KT P6SM SCT025 BKN040
      TEMPO 2105/2108 BKN025
     FM210800 35007KT P6SM BKN015
     FM211700 33008KT P6SM BKN021
     FM212100 33008KT P6SM BKN035=



000
FTUS43 KLMK 202300
TAFBWG
TAF
KBWG 202320Z 2100/2124 VRB04KT 6SM -SHRA BR SCT040 BKN050
     FM210100 35005KT 6SM -SHRA BR BKN021
      TEMPO 2102/2105 4SM -SHRA BR BKN008
     FM210500 34005KT 4SM BR BKN008
     FM211500 32007KT P6SM OVC015
     FM211900 33008KT P6SM BKN025=



000
FTUS43 KLMK 202300
TAFSDF
TAF
KSDF 202320Z 2100/2206 02008KT P6SM -SHRA SCT040 BKN080
     FM210500 36007KT P6SM SCT025 BKN040
      TEMPO 2105/2108 BKN025
     FM210800 35007KT P6SM BKN015
     FM211700 33008KT P6SM BKN021
     FM212100 33008KT P6SM BKN035=



000
FTUS43 KLMK 202300
TAFLEX
TAF
KLEX 202320Z 2100/2124 03008KT P6SM VCSH FEW040 BKN120
     FM210600 02006KT 6SM -SHRA BR BKN025
     FM210800 36006KT 6SM BR BKN015
     FM211300 34006KT P6SM BKN015
     FM212000 32007KT P6SM BKN022=



000
FTUS43 KLMK 202300
TAFLEX
TAF
KLEX 202320Z 2100/2124 03008KT P6SM VCSH FEW040 BKN120
     FM210600 02006KT 6SM -SHRA BR BKN025
     FM210800 36006KT 6SM BR BKN015
     FM211300 34006KT P6SM BKN015
     FM212000 32007KT P6SM BKN022=



000
FTUS43 KLMK 202300 AAA
TAFLEX
TAF AMD
KLEX 202306Z 2023/2118 03008KT P6SM VCSH FEW040 BKN120
     FM210600 02006KT 6SM -SHRA BR BKN025
     FM210800 36006KT 6SM BR BKN015
     FM211300 34006KT P6SM BKN015=



000
FTUS43 KLMK 202300 AAA
TAFLEX
TAF AMD
KLEX 202306Z 2023/2118 03008KT P6SM VCSH FEW040 BKN120
     FM210600 02006KT 6SM -SHRA BR BKN025
     FM210800 36006KT 6SM BR BKN015
     FM211300 34006KT P6SM BKN015=



000
FTUS43 KLMK 202200 AAB
TAFSDF
TAF AMD
KSDF 202246Z 2023/2124 02008KT P6SM -SHRA SCT040 BKN080
     FM210500 36007KT P6SM SCT025 BKN040
      TEMPO 2105/2108 BKN025
     FM210800 35007KT P6SM BKN015
     FM211700 33008KT P6SM BKN021
     FM212100 33008KT P6SM BKN035=



000
FTUS43 KLMK 202200 AAB
TAFSDF
TAF AMD
KSDF 202246Z 2023/2124 02008KT P6SM -SHRA SCT040 BKN080
     FM210500 36007KT P6SM SCT025 BKN040
      TEMPO 2105/2108 BKN025
     FM210800 35007KT P6SM BKN015
     FM211700 33008KT P6SM BKN021
     FM212100 33008KT P6SM BKN035=



000
FTUS43 KLMK 202200 AAA
TAFBWG
TAF AMD
KBWG 202223Z 2022/2118 VRB05KT P6SM -SHRA SCT040 BKN060
     FM210100 35005KT 6SM -SHRA BR BKN021
      TEMPO 2102/2105 4SM -SHRA BR BKN008
     FM210500 34005KT 4SM BR BKN008
     FM211500 32007KT P6SM OVC015=



000
FTUS43 KLMK 201900 AAA
TAFSDF
TAF AMD
KSDF 201925Z 2019/2124 VRB04KT P6SM FEW150 BKN250
     FM202200 03008KT P6SM VCSH SCT040 BKN050
     FM210500 36006KT P6SM VCSH BKN015
     FM210800 35007KT P6SM BKN015
     FM211600 33008KT P6SM BKN021
     FM212000 34008KT P6SM BKN035=



000
FTUS43 KLMK 201900 AAA
TAFSDF
TAF AMD
KSDF 201925Z 2019/2124 VRB04KT P6SM FEW150 BKN250
     FM202200 03008KT P6SM VCSH SCT040 BKN050
     FM210500 36006KT P6SM VCSH BKN015
     FM210800 35007KT P6SM BKN015
     FM211600 33008KT P6SM BKN021
     FM212000 34008KT P6SM BKN035=



000
FTUS43 KLMK 201700
TAFBWG
TAF
KBWG 201726Z 2018/2118 06005KT P6SM FEW150 BKN250
     FM202030 VRB03KT P6SM -SHRA SCT040 BKN050
     FM210100 35004KT 5SM -SHRA BR BKN021
     FM210400 VRB03KT 4SM BR VCSH BKN008
     FM211500 33007KT P6SM OVC015=



000
FTUS43 KLMK 201700
TAFLEX
TAF
KLEX 201726Z 2018/2118 02007KT P6SM FEW150 BKN250
     FM202330 03009KT P6SM VCSH SCT025 BKN050
     FM210500 02005KT 4SM -SHRA BR BKN010
     FM211300 33005KT P6SM VCSH BKN015=



000
FTUS43 KLMK 201700
TAFSDF
TAF
KSDF 201726Z 2018/2124 04004KT P6SM FEW150 BKN250
     FM202130 02009KT P6SM VCSH SCT040 BKN050
     FM210500 35006KT P6SM VCSH BKN015
     FM211600 33008KT P6SM BKN021
     FM212000 34008KT P6SM BKN035=



000
FTUS43 KLMK 201700
TAFLEX
TAF
KLEX 201726Z 2018/2118 02007KT P6SM FEW150 BKN250
     FM202330 03009KT P6SM VCSH SCT025 BKN050
     FM210500 02005KT 4SM -SHRA BR BKN010
     FM211300 33005KT P6SM VCSH BKN015=



000
FTUS43 KLMK 201700
TAFBWG
TAF
KBWG 201726Z 2018/2118 06005KT P6SM FEW150 BKN250
     FM202030 VRB03KT P6SM -SHRA SCT040 BKN050
     FM210100 35004KT 5SM -SHRA BR BKN021
     FM210400 VRB03KT 4SM BR VCSH BKN008
     FM211500 33007KT P6SM OVC015=



000
FTUS43 KLMK 201700
TAFSDF
TAF
KSDF 201726Z 2018/2124 04004KT P6SM FEW150 BKN250
     FM202130 02009KT P6SM VCSH SCT040 BKN050
     FM210500 35006KT P6SM VCSH BKN015
     FM211600 33008KT P6SM BKN021
     FM212000 34008KT P6SM BKN035=



000
FTUS43 KLMK 201100
TAFSDF
TAF
KSDF 201120Z 2012/2118 04007KT P6SM BKN250
     FM202100 02006KT P6SM VCSH BKN035
     FM210300 35006KT P6SM BKN015=



000
FTUS43 KLMK 201100
TAFLEX
TAF
KLEX 201120Z 2012/2112 02006KT P6SM SKC
     FM201400 05008KT P6SM BKN250
     FM202200 03008KT P6SM VCSH BKN035
     FM210300 01004KT P6SM BKN015=



000
FTUS43 KLMK 201100
TAFBWG
TAF
KBWG 201120Z 2012/2112 00000KT P6SM SKC
     FM201400 06006KT P6SM SCT250
     FM202100 VRB03KT P6SM VCSH BKN025
     FM210300 VRB03KT 4SM BR BKN010=



000
FTUS43 KLMK 201100
TAFSDF
TAF
KSDF 201120Z 2012/2118 04007KT P6SM BKN250
     FM202100 02006KT P6SM VCSH BKN035
     FM210300 35006KT P6SM BKN015=



000
FTUS43 KLMK 201100
TAFBWG
TAF
KBWG 201120Z 2012/2112 00000KT P6SM SKC
     FM201400 06006KT P6SM SCT250
     FM202100 VRB03KT P6SM VCSH BKN025
     FM210300 VRB03KT 4SM BR BKN010=



000
FTUS43 KLMK 201100
TAFLEX
TAF
KLEX 201120Z 2012/2112 02006KT P6SM SKC
     FM201400 05008KT P6SM BKN250
     FM202200 03008KT P6SM VCSH BKN035
     FM210300 01004KT P6SM BKN015=



    US Dept of Commerce
    National Oceanic and Atmospheric Administration
    National Weather Service
    1325 East West Highway
    Silver Spring, MD 20910
    Page Author: NWS Internet Services Team
Disclaimer
Information Quality
Credits
Glossary
Privacy Policy
Freedom of Information Act (FOIA)
About Us
Career Opportunities